Rating List


Tournament directors can view a complete rating list of all members both current and past. Right click on view to save this comma delimited text file so it can be imported to any database, spreadsheet or word processor you want. The file contains CFC Numbers, Names, Expiry Dates, Ratings (both active and regular) and Rating Indicators.

Ratings Calculator


Tournament players can calculate the approximate value of their new rating ahead of the weekly ratings update.

Player Information

Roland Schech
RatingHighest RatingActive RatingActive HighestFIDE RatingCFC#ExpiryCity/Prov
15251715157250133868No ExpirySt. Albert, AB
View this player's FIDE Rating

Tournament Name

Tournament Date

Type

Games

Pre-Rating

Perf-Rating

Post-Rating

Total

Banff Open 2017 2017-11-12 R 6 1540 1503 1525 2.0
Edmonton Irregulars 2017-10-30 R 1 1542 1509 1540 0.5
Running Kings Open 2017-10-26 R 6 1571 1475 1542 3.0
Running Kings extra games 2017-10-26 R 1 1573 1525 1571 0.5
2017 Richard Roberts Memorial 2017-08-31 R 7 1592 1527 1573 5.0
Fort McMurray Open 2017 2017-07-02 R 5 1580 1581 1592 2.5
ECC Spring Open 2017-06-29 R 6 1623 1416 1580 4.5
34th Trumpeter Classic 2017-06-04 R 5 1622 1690 1623 2.0
2017 ECC Capablanca Classic 2017-04-27 R 8 1532 1708 1622 5.5
Lethbridge Open 2017 2017-04-02 R 4 1529 1573 1532 2.5
2017 Edmonton Reserves 2017-02-23 R 6 1568 1336 1529 4.0
U2000 Preliminary Rounds 2016-12-30 R 4 1607 1369 1568 1.0
ECC Christmas Open 2016-12-29 R 7 1616 1632 1607 4.0
Schech-Windram Challenge 2016-12-15 R 1 1610 1762 1616 1.0
Relling-Schech Challenge 2016-12-09 R 1 1636 980 1610 0.0
ECC Autumn Open 2016-10-27 R 4 1712 1170 1636 2.5
ECC Summer Open 2016-08-25 R 7 1700 1682 1712 5.0
ECC Spring Open 2016-06-30 R 7 1548 1823 1700 6.0
2016 Trumpeter Classic 2016-05-22 R 4 1579 1344 1548 1.5
ECC Capablanca Classic 2016-04-28 R 7 1582 1565 1579 4.5
2016 Lethbridge Open 2016-04-03 R 4 1559 1705 1582 2.5
2016 Edmonton Reserves 2016-02-26 R 5 1552 1634 1559 2.0
U2000 Preliminary Rounds 2015-12-30 R 4 1614 1231 1552 0.5
ECC Christmas Open 2015-12-17 R 2 1614 1623 1614 4.0
ECC Autumn Open 2015-10-29 R 5 1617 1592 1614 5.0
21st Medicine Hat Open 2015-09-20 R 4 1625 1569 1617 2.5
2015 ECC Summer Open 2015-08-27 R 8 1631 1599 1625 4.5
2015 ECC Capablanca Classic 2015-06-25 R 3 1583 2006 1631 5.0
32nd Trumpeter Classic 2015-06-07 R 4 1589 1554 1583 1.5
2015 ECC Spring Open 2015-04-30 R 3 1603 1484 1589 4.5
Under 2000 Final Rounds 2015-04-20 R 4 1603 1603 1603 2.0
2015 Lethbridge Open 2015-04-12 R 4 1593 1661 1603 2.0
Edmonton Reserves 2015-02-26 R 6 1605 1557 1593 3.0
ECC Christmas Open 2014-12-18 R 7 1625 1533 1605 3.5
U2000 Preliminary Rounds 2014-10-31 R 4 1599 1766 1625 3.0
ECC Autumn Open 2014-10-30 R 4 1589 1676 1599 4.5
2014 ECCAugustOpen 2014-08-24 R 4 1588 1587 1589 2.0
ECC Summer Open 2014 2014-07-31 R 7 1576 1613 1588 5.0
2014 Fort McMurray Open 2014-07-06 R 5 1621 1383 1576 1.5
31st Trumpeter Classic 2014-06-08 R 4 1642 1494 1621 1.5
2014 ECC Capablanca Classic 2014-05-29 R 5 1514 1884 1642 5.5
2014 Lethbridge Open 2014-04-06 R 4 1543 1404 1514 1.5
2014 ECC Spring Open 2014-03-27 R 2 1586 1062 1543 0.5
2014 ECC Edmonton Reserves 2014-02-28 R 8 1608 1516 1586 4.5
ECC U2000 Prelims 2013-12-23 R 4 1587 1712 1608 2.0
2013 Fort McMurray Open 2013-07-07 R 4 1607 1497 1587 2.5
30th Trumpeter Classic 2013-06-02 R 4 1631 1506 1607 1.5
2013 ECC May Open 2013-05-30 R 5 1658 1531 1631 2.0
2013 ECC April Open 2013-04-25 R 4 1647 1726 1658 2.0
2013 Lethbridge Open 2013-04-07 R 4 1655 1567 1647 2.5
2013 ECC Capablanca Classic 2013-03-28 R 4 1684 1481 1655 1.0
2013 Edmonton Ch Reserves 2013-02-28 R 7 1679 1749 1684 4.5
2013 Red Deer Open 2013-01-27 R 4 1657 1822 1679 2.5
U2000 Preliminary Rounds 2012-11-29 R 4 1641 1746 1657 3.0
ECC Cor Dewindt Memorial 2012-11-29 R 4 1635 1684 1641 2.5
2012 ECC Halloween Open 2012-10-25 R 2 1659 1285 1635 2.0
2012 ECC Frank Anderson Memorial 2012-08-30 R 1 1672 1326 1659 2.0
2012 ECC Summer Open 2012-07-26 R 3 1648 1846 1672 2.5
ECC Short Knights of Summer Open 2012-06-28 R 2 1649 1630 1648 1.5
2012 Trumpeter Classic 2012-06-03 R 4 1658 1604 1649 2.0
2012 ECC Skeel Memorial 2012-05-31 R 4 1633 1765 1658 2.5
Edmonton CC U2000 2012-04-30 R 4 1599 1782 1633 3.0
ECC Capablanca Classic 2012-03-29 R 3 1597 1608 1599 1.5
2012 Edmonton Ch Reserves 2012-02-24 R 8 1572 1663 1597 3.5
2011 ECC Christmas Open 2011-12-29 R 5 1618 1318 1572 2.0
2011 ECC Halloween Open 2011-10-27 R 2 1627 1443 1618 2.5
ECC Welcome Back Shabba Open 2011-07-28 R 2 1660 1252 1627 0.0
ECC Schnitka Memorial 2011-05-25 R 4 1680 1537 1660 2.0
2011 ECC Skeel Memorial 2011-04-29 R 3 1612 2170 1680 3.5
ECC Capablanca Classic 2011-03-31 R 5 1676 1320 1612 1.5
2011 Edmonton Ch Reserves 2011-02-25 R 6 1670 1691 1676 3.5
2011 Trumpeter Classic 2011-01-30 R 4 1715 1420 1670 1.5
2010 ECC Christmas Open 2010-12-30 R 4 1676 1852 1715 3.5
ECC November Open 2010-11-25 R 2 1658 1889 1676 2.0
ECC U2000 Preliminaries 2010-10-31 R 2 1682 1376 1658 1.0
ECC Halloween Open 2010-10-28 R 3 1654 1891 1682 2.5
ECC Back To School Open 2010-09-30 R 4 1656 1638 1654 2.5
ECC Hollowach Challenge 2010-08-26 R 3 1663 1573 1656 1.0
ECC Canada Day Open 2010-07-29 R 4 1678 1543 1663 2.5
2010 ECC Spring Open 2010-03-25 R 2 1691 1493 1678 1.5
2010 Edmonton Ch Reserves 2010-02-26 R 6 1675 1706 1691 4.0
2010 Trumpeter Classic 2010-01-31 R 4 1677 1604 1675 2.5
ECC U2000 Knockout Matches 2009-12-30 R 2 1677 1644 1677 1.0
ECC Christmas Open 2009-12-29 R 4 1673 1678 1677 2.0
U2000 Preliminary Matches 2009-07-07 R 2 1645 1968 1673 2.0
ECC Skeel Memorial 2009-04-30 R 4 1632 1668 1645 2.0
ECC Capablanca Classic 2009-03-26 R 3 1638 1544 1632 1.5
Edmonton Reserves 2009-02-27 R 6 1664 1518 1638 2.5
2009 Trumpeter Classic 2009-02-01 R 4 1652 1681 1664 2.0
Edmonton U2000 Candidates 2008-12-31 R 2 1672 1378 1652 1.0
ECC Christmas Open 2008-12-30 R 5 1622 1813 1672 3.0
Edmonton U2000 2008-05-31 R 2 1639 1424 1622 0.0
ECC Schnitka Memorial 2008-05-29 R 5 1626 1687 1639 2.5
ECC Skeel Memorial 2008-04-24 R 3 1641 1510 1626 2.5
Edmonton Reserves 2008-02-28 R 6 1629 1673 1641 4.0
25th Annual Trumpeter Classic 2008-01-27 R 4 1604 1799 1629 2.5
ECC Christmas Open 2007-12-27 R 2 1651 1054 1604 1.0
ECC Skeel Memorial 2007-04-26 R 4 1651 1586 1651 2.0
ECC Capablanca Classic 2007-03-29 R 1 1667 1273 1651 1.5
2007 Edmonton Reserves 2007-02-22 R 5 1629 1835 1667 4.0
2007 Trumpeter Classic 2007-01-28 R 4 1612 1734 1629 2.0
ECC Dance O Power 2006-11-30 R 3 1589 1277 1553 1.0
ECC Halloween Open 2006-10-26 R 2 1590 1575 1589 1.5
Armouries Memorial 2006-08-31 R 4 1611 1494 1590 1.5
Caissas Temple Open 2006-06-30 R 2 1597 1818 1611 2.5
ECC Hollowach Challenge 2006-05-25 R 2 1618 1357 1597 1.0
ECC Reserves 2006 2006-02-23 R 8 1601 1652 1618 4.0
2006 Trumpeter Classic 2006-01-29 R 4 1579 1706 1601 2.5
ECC Christmas Open 2006-01-09 R 1 1587 1370 1579 2.0
Weekend Before Xmas Open 2005-12-18 R 1 1613 967 1587 1.0
ECC Halloween Open 2005-11-16 R 4 1544 1831 1613 3.5
ECC Back To School Open 2005-09-30 R 2 1543 1583 1544 1.5
ECC August Open 2005-08-25 R 1 1535 1741 1543 2.5
ECC Skeel Memorial 2005-05-26 R 3 1505 1788 1535 2.5
ECC Schnitka Memorial 2005-04-28 R 3 1491 1593 1505 2.5
Edmonton Reserves 2005 2005-03-03 R 5 1457 1642 1491 4.0
ECC Christmas Open 2004 2004-12-30 R 4 1485 1306 1457 2.0
Weekend Before Xmas Open 2004-12-19 R 4 1543 1204 1485 0.5
ECC Dance of Power 2004-11-25 R 3 1492 1980 1543 2.5
ECC August Open 2004-08-26 R 4 1529 1281 1492 0.0
ECC Summer Swiss 2004-07-29 R 4 1551 1412 1529 2.5
ECC Skeel Memorial 2004-06-24 R 4 1533 1648 1551 3.0
ECC Hollowach Challenge 2004-05-08 R 4 1551 1433 1533 2.5
Edmonton Closed Reserves 2004-02-26 R 7 1469 1694 1551 4.5
Back to School Open 2003-09-25 R 4 1471 1414 1469 2.0
ECC August Open 2003-08-28 R 2 1464 1575 1471 2.0
Simon Says Play Chess 2003-08-10 R 5 1511 1274 1464 0.5
ECC Summer Swiss 2003-07-31 R 5 1508 1556 1511 2.5
ECC Skeel Memorial 2003-06-26 R 4 1552 1301 1508 1.0
Capablanca Classic 2003-05-29 R 5 1548 1560 1552 2.0
ECC Spring Open 2003-04-07 R 4 1563 1519 1548 1.5
Dance o Power 2002-11-28 R 4 1670 1455 1563 1.0
Summer Swiss Open 2002-07-25 R 4 0 1670 1670 2.0
Alberta Active Chess Championship 2008-05-11 A 5 0 1518 1524 2.0